Time;durP1;ratioP1;P1;durP2;ratioP2;P2;SDS_P1;SDS_P2;PMS_P1;PMS_P2;Temp;Humidity;BMP_temperature;BMP_pressure;BME280_temperature;BME280_humidity;BME280_pressure;Samples;Min_cycle;Max_cycle;Signal;HPM_P1;HPM_P2
2024/01/24 00:00:13;;;;;;;10.45;4.57;;;;;;;;;;5887114;28;20051;-78
2024/01/24 00:03:04;;;;;;;8.05;4.47;;;;;;;;;;5885627;28;20051;-78
2024/01/24 00:05:55;;;;;;;9.73;4.40;;;;;;;;;;5886047;28;20053;-78
2024/01/24 00:08:47;;;;;;;6.05;3.90;;;;;;;;;;5885524;28;20050;-77
2024/01/24 00:11:38;;;;;;;12.32;4.38;;;;;;;;;;5885372;28;20041;-77
2024/01/24 00:14:29;;;;;;;13.88;4.80;;;;;;;;;;5885344;28;20132;-78
2024/01/24 00:17:20;;;;;;;7.63;4.75;;;;;;;;;;5885245;28;20061;-78
2024/01/24 00:20:12;;;;;;;9.55;5.47;;;;;;;;;;5885278;28;20045;-78
2024/01/24 00:23:03;;;;;;;25.63;8.57;;;;;;;;;;5885298;28;20499;-78
2024/01/24 00:25:54;;;;;;;16.52;6.82;;;;;;;;;;5885307;28;20037;-78
2024/01/24 00:28:45;;;;;;;21.77;8.35;;;;;;;;;;5885061;28;20526;-78
2024/01/24 00:31:35;;;;;;;12.77;9.02;;;;;;;;;;5885059;28;20049;-78
2024/01/24 00:34:26;;;;;;;17.75;10.55;;;;;;;;;;5885152;28;20045;-78
2024/01/24 00:37:17;;;;;;;23.63;12.40;;;;;;;;;;5885032;28;20049;-78
2024/01/24 00:40:09;;;;;;;18.00;6.85;;;;;;;;;;5885148;28;20128;-78
2024/01/24 00:43:01;;;;;;;21.70;7.97;;;;;;;;;;5885320;28;20049;-78
2024/01/24 00:45:51;;;;;;;26.27;8.18;;;;;;;;;;5884833;28;20037;-78
2024/01/24 00:48:42;;;;;;;28.88;7.43;;;;;;;;;;5884710;28;20045;-78
2024/01/24 00:51:33;;;;;;;24.75;7.95;;;;;;;;;;5884673;28;20415;-78
2024/01/24 00:54:24;;;;;;;24.08;7.30;;;;;;;;;;5884539;28;20534;-78
2024/01/24 00:57:15;;;;;;;18.50;6.47;;;;;;;;;;5884886;28;20049;-78
2024/01/24 01:00:07;;;;;;;13.82;5.35;;;;;;;;;;5884714;28;20057;-78
2024/01/24 01:02:58;;;;;;;15.07;6.35;;;;;;;;;;5876833;28;20056;-78
2024/01/24 01:05:48;;;;;;;12.73;6.47;;;;;;;;;;5861276;28;20573;-78
2024/01/24 01:08:39;;;;;;;10.98;6.63;;;;;;;;;;5844992;28;20053;-78
2024/01/24 01:11:30;;;;;;;10.40;4.22;;;;;;;;;;5861099;28;20384;-78
2024/01/24 01:14:21;;;;;;;9.27;4.53;;;;;;;;;;5861185;28;20057;-78
2024/01/24 01:17:11;;;;;;;8.77;4.38;;;;;;;;;;5861215;28;20060;-78
2024/01/24 01:20:04;;;;;;;8.90;4.05;;;;;;;;;;5860938;28;20054;-78
2024/01/24 01:22:54;;;;;;;15.27;4.40;;;;;;;;;;5861615;28;20049;-78
2024/01/24 01:25:45;;;;;;;6.68;4.75;;;;;;;;;;5861313;28;20033;-78
2024/01/24 01:28:36;;;;;;;9.48;4.32;;;;;;;;;;5861310;28;20049;-78
2024/01/24 01:31:27;;;;;;;8.40;4.20;;;;;;;;;;5877612;28;20525;-78
2024/01/24 01:34:17;;;;;;;11.60;4.75;;;;;;;;;;5861072;28;20050;-78
2024/01/24 01:37:08;;;;;;;7.00;5.10;;;;;;;;;;5862338;28;20095;-78
2024/01/24 01:39:59;;;;;;;10.20;4.38;;;;;;;;;;5862665;28;20051;-78
2024/01/24 01:42:50;;;;;;;8.43;4.05;;;;;;;;;;5861174;28;20060;-78
2024/01/24 01:45:42;;;;;;;8.73;3.80;;;;;;;;;;5844631;28;20573;-78
2024/01/24 01:48:34;;;;;;;14.02;4.60;;;;;;;;;;5844819;28;20119;-79
2024/01/24 01:51:26;;;;;;;15.10;4.85;;;;;;;;;;5860789;28;20476;-78
2024/01/24 01:54:17;;;;;;;5.68;4.10;;;;;;;;;;5860814;28;20046;-78
2024/01/24 01:57:11;;;;;;;9.05;4.47;;;;;;;;;;5877551;28;20081;-78
2024/01/24 02:00:05;;;;;;;6.75;4.13;;;;;;;;;;5860792;28;20095;-78
2024/01/24 02:02:56;;;;;;;10.20;3.38;;;;;;;;;;5861319;28;20470;-78
2024/01/24 02:05:47;;;;;;;9.70;3.55;;;;;;;;;;5860742;28;20124;-79
2024/01/24 02:08:39;;;;;;;8.50;3.00;;;;;;;;;;5860864;28;20103;-79
2024/01/24 02:11:30;;;;;;;4.28;2.53;;;;;;;;;;5860845;28;20123;-78
2024/01/24 02:14:21;;;;;;;4.35;3.25;;;;;;;;;;5864824;28;20056;-79
2024/01/24 02:17:12;;;;;;;6.80;3.92;;;;;;;;;;5865004;28;20056;-79
2024/01/24 02:20:05;;;;;;;22.05;4.53;;;;;;;;;;5864852;28;20045;-78
2024/01/24 02:22:56;;;;;;;7.45;4.05;;;;;;;;;;5865498;28;20525;-79
2024/01/24 02:25:49;;;;;;;4.80;2.17;;;;;;;;;;5864790;28;20411;-79
2024/01/24 02:28:40;;;;;;;7.97;3.70;;;;;;;;;;5864831;28;20053;-79
2024/01/24 02:31:31;;;;;;;8.98;5.35;;;;;;;;;;5865035;28;20045;-79
2024/01/24 02:34:21;;;;;;;11.82;2.83;;;;;;;;;;5864541;28;20052;-78
2024/01/24 02:37:12;;;;;;;7.75;2.90;;;;;;;;;;5848479;28;20053;-78
2024/01/24 02:40:04;;;;;;;11.25;3.72;;;;;;;;;;5864365;28;20514;-78
2024/01/24 02:42:55;;;;;;;6.38;2.67;;;;;;;;;;5865025;28;20450;-79
2024/01/24 02:45:46;;;;;;;10.25;3.80;;;;;;;;;;5864435;28;20041;-79
2024/01/24 02:48:37;;;;;;;4.20;2.67;;;;;;;;;;5864413;28;20138;-78
2024/01/24 02:51:28;;;;;;;9.27;5.53;;;;;;;;;;5864003;28;20046;-79
2024/01/24 02:54:19;;;;;;;5.05;2.80;;;;;;;;;;5864013;28;20053;-79
2024/01/24 02:57:09;;;;;;;7.45;3.63;;;;;;;;;;5880673;28;20149;-78
2024/01/24 03:00:00;;;;;;;5.28;3.17;;;;;;;;;;5847939;28;20060;-78
2024/01/24 03:02:51;;;;;;;9.73;3.40;;;;;;;;;;5864321;28;20056;-79
2024/01/24 03:05:42;;;;;;;7.88;2.25;;;;;;;;;;5863961;28;20049;-79
2024/01/24 03:08:56;;;;;;;3.40;1.98;;;;;;;;;;5863725;28;20041;-79
2024/01/24 03:11:47;;;;;;;2.00;1.83;;;;;;;;;;5863946;28;20052;-78
2024/01/24 03:14:38;;;;;;;3.08;1.40;;;;;;;;;;5865236;28;20061;-78
2024/01/24 03:17:28;;;;;;;2.58;1.63;;;;;;;;;;5864932;28;20052;-78
2024/01/24 03:20:20;;;;;;;4.60;1.75;;;;;;;;;;5863679;28;20511;-78
2024/01/24 03:23:12;;;;;;;4.63;1.80;;;;;;;;;;5863476;28;20046;-78
2024/01/24 03:26:03;;;;;;;2.25;1.73;;;;;;;;;;5864469;28;20061;-78
2024/01/24 03:28:53;;;;;;;3.63;1.60;;;;;;;;;;5865281;28;20049;-78
2024/01/24 03:31:44;;;;;;;1.92;1.30;;;;;;;;;;5863485;28;20052;-78
2024/01/24 03:34:35;;;;;;;5.30;2.17;;;;;;;;;;5863394;28;20336;-78
2024/01/24 03:37:26;;;;;;;6.68;1.88;;;;;;;;;;5863149;28;20053;-78
2024/01/24 03:40:16;;;;;;;3.88;1.38;;;;;;;;;;5879528;28;20052;-78
2024/01/24 03:43:08;;;;;;;1.58;1.48;;;;;;;;;;5864479;28;20083;-78
2024/01/24 03:46:00;;;;;;;2.88;1.35;;;;;;;;;;5863617;28;20053;-79
2024/01/24 03:48:51;;;;;;;3.80;1.73;;;;;;;;;;5863154;28;20045;-78
2024/01/24 03:51:42;;;;;;;1.42;1.30;;;;;;;;;;5863173;28;20041;-78
2024/01/24 03:54:34;;;;;;;2.63;2.28;;;;;;;;;;5864077;28;20057;-78
2024/01/24 03:57:25;;;;;;;3.65;2.25;;;;;;;;;;5863079;28;20128;-78
2024/01/24 04:00:16;;;;;;;6.68;1.25;;;;;;;;;;5846455;28;20053;-78
2024/01/24 04:03:07;;;;;;;2.40;1.60;;;;;;;;;;5862849;28;20124;-77
2024/01/24 04:05:58;;;;;;;1.52;1.40;;;;;;;;;;5862967;28;20052;-78
2024/01/24 04:08:49;;;;;;;2.47;1.58;;;;;;;;;;5862638;28;20041;-78
2024/01/24 04:11:39;;;;;;;4.15;2.05;;;;;;;;;;5862686;28;20383;-78
2024/01/24 04:14:30;;;;;;;9.32;2.13;;;;;;;;;;5846476;28;20049;-78
2024/01/24 04:17:21;;;;;;;5.03;1.92;;;;;;;;;;5862568;28;20053;-78
2024/01/24 04:20:12;;;;;;;2.67;1.58;;;;;;;;;;5862386;28;20053;-78
2024/01/24 04:23:03;;;;;;;4.32;1.67;;;;;;;;;;5862518;28;20047;-78
2024/01/24 04:25:53;;;;;;;2.95;1.80;;;;;;;;;;5862293;28;20048;-78
2024/01/24 04:28:44;;;;;;;7.63;2.85;;;;;;;;;;5862095;28;20052;-78
2024/01/24 04:31:35;;;;;;;2.47;1.73;;;;;;;;;;5861997;28;20046;-78
2024/01/24 04:34:26;;;;;;;4.50;2.83;;;;;;;;;;5862115;28;20064;-78
2024/01/24 04:37:17;;;;;;;1.52;1.42;;;;;;;;;;5861209;28;20049;-78
2024/01/24 04:40:08;;;;;;;1.65;1.38;;;;;;;;;;5863122;28;20075;-78
2024/01/24 04:42:59;;;;;;;3.45;1.60;;;;;;;;;;5862093;28;20141;-78
2024/01/24 04:45:50;;;;;;;2.20;1.52;;;;;;;;;;5863713;28;20491;-78
2024/01/24 04:48:43;;;;;;;2.15;1.88;;;;;;;;;;5863176;28;20052;-78
2024/01/24 04:51:34;;;;;;;11.23;1.63;;;;;;;;;;5861471;28;20127;-78
2024/01/24 04:54:25;;;;;;;5.88;1.33;;;;;;;;;;5877935;28;20215;-77
2024/01/24 04:57:16;;;;;;;3.47;1.48;;;;;;;;;;5861558;28;20084;-78
2024/01/24 05:00:08;;;;;;;2.80;1.98;;;;;;;;;;5861353;28;20049;-78
2024/01/24 05:03:00;;;;;;;3.22;2.10;;;;;;;;;;5846026;28;20045;-78
2024/01/24 05:05:51;;;;;;;2.28;1.52;;;;;;;;;;5863039;28;20046;-78
2024/01/24 05:08:54;;;;;;;1.42;1.33;;;;;;;;;;5847384;28;20091;-78
2024/01/24 05:11:44;;;;;;;1.38;1.27;;;;;;;;;;5862402;28;20045;-78
2024/01/24 05:14:35;;;;;;;5.30;2.00;;;;;;;;;;5860998;28;20048;-78
2024/01/24 05:17:26;;;;;;;10.25;3.25;;;;;;;;;;5845196;28;20041;-78
2024/01/24 05:20:17;;;;;;;6.05;2.75;;;;;;;;;;5861084;28;20053;-78
2024/01/24 05:23:08;;;;;;;2.75;2.05;;;;;;;;;;5861331;28;20375;-78
2024/01/24 05:25:59;;;;;;;2.95;2.22;;;;;;;;;;5861738;28;20518;-78
2024/01/24 05:28:49;;;;;;;6.35;3.63;;;;;;;;;;5860996;28;20044;-78
2024/01/24 05:31:40;;;;;;;1.60;1.33;;;;;;;;;;5861151;28;20153;-78
2024/01/24 05:34:31;;;;;;;2.22;2.03;;;;;;;;;;5844617;28;20049;-78
2024/01/24 05:37:22;;;;;;;3.10;2.42;;;;;;;;;;5861299;28;20064;-78
2024/01/24 05:40:13;;;;;;;2.40;2.13;;;;;;;;;;5860833;28;20057;-78
2024/01/24 05:43:04;;;;;;;3.80;2.10;;;;;;;;;;5877398;28;20498;-78
2024/01/24 05:45:55;;;;;;;2.55;1.20;;;;;;;;;;5845101;28;20132;-77
2024/01/24 05:48:45;;;;;;;6.22;3.05;;;;;;;;;;5864108;28;20045;-78
2024/01/24 05:51:36;;;;;;;1.63;1.52;;;;;;;;;;5849623;28;20099;-77
2024/01/24 05:54:27;;;;;;;3.00;1.13;;;;;;;;;;5881649;28;20121;-77
2024/01/24 05:57:18;;;;;;;1.05;0.95;;;;;;;;;;5849036;28;20045;-77
2024/01/24 06:00:14;;;;;;;2.15;0.90;;;;;;;;;;5865740;28;20049;-76
2024/01/24 06:03:07;;;;;;;1.30;1.17;;;;;;;;;;5866490;28;20053;-76
2024/01/24 06:05:58;;;;;;;2.75;2.20;;;;;;;;;;5849508;28;20045;-77
2024/01/24 06:08:49;;;;;;;1.83;0.90;;;;;;;;;;5865660;28;20046;-76
2024/01/24 06:11:40;;;;;;;2.85;1.67;;;;;;;;;;5865398;28;20132;-76
2024/01/24 06:14:31;;;;;;;5.65;2.40;;;;;;;;;;5866233;28;20426;-77
2024/01/24 06:17:22;;;;;;;1.38;1.27;;;;;;;;;;5865228;28;20049;-77
2024/01/24 06:20:13;;;;;;;4.00;2.50;;;;;;;;;;5864780;28;20465;-76
2024/01/24 06:23:04;;;;;;;0.43;0.43;;;;;;;;;;5865149;28;20049;-75
2024/01/24 06:25:55;;;;;;;1.60;1.40;;;;;;;;;;5865039;28;20056;-76
2024/01/24 06:28:46;;;;;;;4.35;2.15;;;;;;;;;;5848117;28;20050;-76
2024/01/24 06:31:37;;;;;;;1.48;1.00;;;;;;;;;;5864545;28;20045;-77
2024/01/24 06:34:28;;;;;;;5.95;1.25;;;;;;;;;;5864649;28;20404;-76
2024/01/24 06:37:19;;;;;;;1.77;1.55;;;;;;;;;;5864458;28;20050;-75
2024/01/24 06:40:10;;;;;;;3.55;1.70;;;;;;;;;;5864355;28;20046;-76
2024/01/24 06:43:00;;;;;;;2.15;1.67;;;;;;;;;;5864327;28;20041;-78
2024/01/24 06:45:51;;;;;;;1.95;1.45;;;;;;;;;;5864742;28;20071;-76
2024/01/24 06:48:42;;;;;;;3.15;1.30;;;;;;;;;;5864242;28;20091;-77
2024/01/24 06:51:33;;;;;;;2.65;1.15;;;;;;;;;;5865620;28;20056;-76
2024/01/24 06:54:24;;;;;;;1.80;1.42;;;;;;;;;;5863523;28;20042;-76
2024/01/24 06:57:15;;;;;;;1.13;1.13;;;;;;;;;;5865477;28;20072;-75
2024/01/24 07:00:08;;;;;;;1.30;1.10;;;;;;;;;;5862755;28;20115;-76
2024/01/24 07:03:01;;;;;;;13.98;2.22;;;;;;;;;;5865750;28;20049;-77
2024/01/24 07:05:52;;;;;;;3.97;1.70;;;;;;;;;;5880428;28;20493;-76
2024/01/24 07:08:43;;;;;;;2.10;1.05;;;;;;;;;;5865024;28;20184;-76
2024/01/24 07:11:36;;;;;;;1.85;0.80;;;;;;;;;;5863805;28;20046;-76
2024/01/24 07:14:27;;;;;;;1.50;1.40;;;;;;;;;;5863558;28;20041;-76
2024/01/24 07:17:18;;;;;;;5.20;1.90;;;;;;;;;;5863653;28;20049;-76
2024/01/24 07:20:09;;;;;;;2.20;1.42;;;;;;;;;;5863596;28;20060;-77
2024/01/24 07:23:01;;;;;;;1.70;1.15;;;;;;;;;;5863794;28;20048;-76
2024/01/24 07:25:52;;;;;;;1.25;1.10;;;;;;;;;;5863428;28;20038;-75
2024/01/24 07:28:43;;;;;;;2.22;1.75;;;;;;;;;;5863432;28;20049;-76
2024/01/24 07:31:34;;;;;;;2.10;1.90;;;;;;;;;;5879908;28;20061;-75
2024/01/24 07:34:25;;;;;;;1.48;1.25;;;;;;;;;;5863331;28;20487;-75
2024/01/24 07:37:16;;;;;;;1.10;1.00;;;;;;;;;;5879818;28;20061;-76
2024/01/24 07:40:07;;;;;;;3.28;2.05;;;;;;;;;;5863173;28;20072;-75
2024/01/24 07:42:58;;;;;;;1.58;1.48;;;;;;;;;;5863641;28;20038;-76
2024/01/24 07:45:50;;;;;;;5.43;2.58;;;;;;;;;;5864410;28;20152;-76
2024/01/24 07:48:42;;;;;;;2.33;1.70;;;;;;;;;;5864241;28;20444;-75
2024/01/24 07:51:34;;;;;;;2.28;2.08;;;;;;;;;;5863075;28;20049;-75
2024/01/24 07:54:25;;;;;;;1.40;1.23;;;;;;;;;;5862402;28;20057;-75
2024/01/24 07:57:16;;;;;;;1.25;1.15;;;;;;;;;;5862833;28;20470;-76
2024/01/24 08:00:08;;;;;;;1.10;0.98;;;;;;;;;;5863822;28;20053;-76
2024/01/24 08:02:59;;;;;;;10.38;2.95;;;;;;;;;;5863207;28;20041;-75
2024/01/24 08:05:50;;;;;;;6.00;2.58;;;;;;;;;;5862910;28;20487;-76
2024/01/24 08:08:41;;;;;;;1.70;1.42;;;;;;;;;;5862610;28;20069;-76
2024/01/24 08:11:32;;;;;;;2.63;2.20;;;;;;;;;;5862396;28;20493;-75
2024/01/24 08:14:23;;;;;;;3.10;1.33;;;;;;;;;;5862267;28;20455;-76
2024/01/24 08:17:14;;;;;;;4.80;1.83;;;;;;;;;;5862326;28;20391;-76
2024/01/24 08:20:08;;;;;;;1.77;1.05;;;;;;;;;;5862132;28;20049;-77
2024/01/24 08:23:00;;;;;;;4.88;2.10;;;;;;;;;;5864193;28;20096;-76
2024/01/24 08:25:51;;;;;;;3.83;2.47;;;;;;;;;;5862385;28;20055;-76
2024/01/24 08:28:42;;;;;;;2.15;1.50;;;;;;;;;;5861936;28;20064;-76
2024/01/24 08:31:34;;;;;;;7.32;1.50;;;;;;;;;;5862007;28;20045;-75
2024/01/24 08:34:24;;;;;;;2.08;1.35;;;;;;;;;;5863220;28;20045;-75
2024/01/24 08:37:15;;;;;;;0.82;0.82;;;;;;;;;;5878441;28;20126;-75
2024/01/24 08:40:08;;;;;;;3.17;1.92;;;;;;;;;;5861622;28;20115;-76
2024/01/24 08:43:00;;;;;;;1.73;1.45;;;;;;;;;;5863513;28;20046;-75
2024/01/24 08:45:51;;;;;;;2.50;1.65;;;;;;;;;;5861905;28;20191;-76
2024/01/24 08:48:42;;;;;;;4.38;1.73;;;;;;;;;;5861594;28;20050;-76
2024/01/24 08:51:33;;;;;;;4.97;2.65;;;;;;;;;;5861783;28;20494;-75
2024/01/24 08:54:24;;;;;;;3.55;1.80;;;;;;;;;;5861358;28;20052;-76
2024/01/24 08:57:16;;;;;;;4.78;2.20;;;;;;;;;;5862958;28;20045;-75
2024/01/24 09:00:08;;;;;;;5.32;2.33;;;;;;;;;;5861505;28;20250;-75
2024/01/24 09:02:59;;;;;;;5.80;3.97;;;;;;;;;;5862208;28;20492;-76
2024/01/24 09:05:51;;;;;;;3.78;2.50;;;;;;;;;;5861760;28;20045;-75
2024/01/24 09:08:45;;;;;;;0.93;0.93;;;;;;;;;;5862858;28;20436;-75
2024/01/24 09:11:35;;;;;;;2.08;1.75;;;;;;;;;;5861428;28;20053;-75
2024/01/24 09:14:39;;;;;;;2.00;1.83;;;;;;;;;;5861652;28;20055;-75
2024/01/24 09:17:32;;;;;;;1.77;1.15;;;;;;;;;;5845115;28;20061;-76
2024/01/24 09:20:22;;;;;;;3.05;1.52;;;;;;;;;;5845255;28;20385;-75
2024/01/24 09:23:14;;;;;;;1.60;1.33;;;;;;;;;;5862122;28;20053;-76
2024/01/24 09:26:05;;;;;;;3.13;1.17;;;;;;;;;;5862249;28;20049;-76
2024/01/24 09:28:56;;;;;;;2.10;1.55;;;;;;;;;;5862039;28;20155;-76
2024/01/24 09:31:47;;;;;;;6.93;1.88;;;;;;;;;;5861228;28;20053;-75
2024/01/24 09:34:38;;;;;;;1.80;1.35;;;;;;;;;;5861133;28;20049;-76
2024/01/24 09:37:29;;;;;;;3.20;1.88;;;;;;;;;;5862357;28;20041;-77
2024/01/24 09:40:20;;;;;;;1.13;1.02;;;;;;;;;;5861025;28;20052;-76
2024/01/24 09:43:13;;;;;;;1.70;1.52;;;;;;;;;;5862455;28;20128;-77
2024/01/24 09:46:12;;;;;;;1.60;1.27;;;;;;;;;;5877882;28;20613;-76
2024/01/24 09:49:06;;;;;;;3.08;2.42;;;;;;;;;;5861256;28;20483;-76
2024/01/24 09:51:59;;;;;;;3.25;1.30;;;;;;;;;;5861676;28;20068;-75
2024/01/24 09:54:59;;;;;;;1.33;1.20;;;;;;;;;;5860898;28;20155;-76
2024/01/24 09:57:51;;;;;;;1.35;1.10;;;;;;;;;;5861123;28;20041;-76
2024/01/24 10:00:44;;;;;;;1.63;1.52;;;;;;;;;;5860917;28;20063;-76
2024/01/24 10:03:35;;;;;;;1.83;1.73;;;;;;;;;;5844968;28;20173;-76
2024/01/24 10:06:28;;;;;;;3.25;1.65;;;;;;;;;;5877330;28;20092;-76
2024/01/24 10:09:19;;;;;;;1.13;1.02;;;;;;;;;;5860833;28;20426;-76
2024/01/24 10:12:10;;;;;;;1.13;0.98;;;;;;;;;;5861746;28;20088;-76
2024/01/24 10:15:02;;;;;;;4.55;0.93;;;;;;;;;;5877196;28;20064;-77
2024/01/24 10:17:53;;;;;;;1.20;1.10;;;;;;;;;;5861095;28;20510;-77
2024/01/24 10:20:46;;;;;;;2.10;1.98;;;;;;;;;;5861963;28;20671;-76
2024/01/24 10:23:43;;;;;;;4.75;1.35;;;;;;;;;;5860767;28;20124;-76
2024/01/24 10:26:33;;;;;;;0.57;0.57;;;;;;;;;;5860704;28;20053;-76
2024/01/24 10:29:24;;;;;;;1.70;1.60;;;;;;;;;;5860533;28;20052;-76
2024/01/24 10:32:15;;;;;;;1.40;1.20;;;;;;;;;;5860950;28;20454;-77
2024/01/24 10:35:08;;;;;;;0.57;0.57;;;;;;;;;;5862320;28;20049;-77
2024/01/24 10:37:59;;;;;;;0.82;0.82;;;;;;;;;;5865179;28;20045;-76
2024/01/24 10:40:59;;;;;;;1.33;0.98;;;;;;;;;;5864823;28;20411;-76
2024/01/24 10:43:57;;;;;;;2.30;2.03;;;;;;;;;;5848601;28;20120;-76
2024/01/24 10:46:50;;;;;;;1.65;1.33;;;;;;;;;;5848359;28;20116;-76
2024/01/24 10:49:43;;;;;;;1.38;1.25;;;;;;;;;;5848419;28;20042;-76
2024/01/24 10:52:34;;;;;;;0.85;0.82;;;;;;;;;;5864607;28;20407;-76
2024/01/24 10:55:26;;;;;;;1.58;1.30;;;;;;;;;;5863703;28;20136;-75
2024/01/24 10:58:18;;;;;;;4.88;4.35;;;;;;;;;;5864186;28;20050;-76
2024/01/24 11:01:09;;;;;;;7.30;5.32;;;;;;;;;;5864167;28;20464;-76
2024/01/24 11:04:04;;;;;;;2.33;1.52;;;;;;;;;;5864293;28;20041;-76
2024/01/24 11:07:07;;;;;;;1.38;1.27;;;;;;;;;;5864249;28;20048;-76
2024/01/24 11:10:19;;;;;;;4.75;3.22;;;;;;;;;;5864746;28;20511;-76
2024/01/24 11:13:14;;;;;;;3.67;2.50;;;;;;;;;;5864888;28;20053;-76
2024/01/24 11:16:36;;;;;;;1.48;0.93;;;;;;;;;;5864115;28;20053;-77
2024/01/24 11:19:29;;;;;;;1.42;1.08;;;;;;;;;;5863468;28;20065;-76
2024/01/24 11:22:24;;;;;;;2.17;1.65;;;;;;;;;;5865006;28;20053;-77
2024/01/24 11:25:37;;;;;;;2.92;2.22;;;;;;;;;;5864783;28;20053;-76
2024/01/24 11:28:28;;;;;;;13.90;1.88;;;;;;;;;;5863763;28;20045;-76
2024/01/24 11:31:42;;;;;;;2.40;1.98;;;;;;;;;;5864649;28;20056;-77
2024/01/24 11:34:33;;;;;;;14.02;2.30;;;;;;;;;;5863377;28;20041;-76
2024/01/24 11:37:24;;;;;;;2.45;1.98;;;;;;;;;;5863685;28;20160;-76
2024/01/24 11:40:16;;;;;;;2.15;2.00;;;;;;;;;;5863261;28;20416;-76
2024/01/24 11:43:25;;;;;;;2.58;2.22;;;;;;;;;;5863033;28;20049;-77
2024/01/24 11:46:20;;;;;;;13.15;1.10;;;;;;;;;;5846883;28;20141;-76
2024/01/24 11:49:11;;;;;;;5.97;0.95;;;;;;;;;;5863017;28;20049;-77
2024/01/24 11:52:02;;;;;;;2.88;1.38;;;;;;;;;;5864373;28;20057;-77
2024/01/24 11:54:53;;;;;;;4.18;1.45;;;;;;;;;;5862770;28;20057;-76
2024/01/24 11:57:44;;;;;;;1.17;0.93;;;;;;;;;;5862971;28;20037;-76
2024/01/24 12:00:35;;;;;;;1.02;0.90;;;;;;;;;;5863031;28;20110;-77
2024/01/24 12:03:26;;;;;;;1.08;1.02;;;;;;;;;;5862532;28;20076;-77
2024/01/24 12:06:17;;;;;;;2.60;1.77;;;;;;;;;;5862700;28;20049;-77
2024/01/24 12:09:11;;;;;;;1.27;1.17;;;;;;;;;;5862693;28;20435;-76
2024/01/24 12:12:01;;;;;;;1.15;1.05;;;;;;;;;;5863170;28;20049;-78
2024/01/24 12:14:52;;;;;;;2.15;1.92;;;;;;;;;;5862765;28;20049;-76
2024/01/24 12:17:45;;;;;;;1.77;1.38;;;;;;;;;;5846580;28;20044;-77
2024/01/24 12:20:36;;;;;;;2.92;1.40;;;;;;;;;;5862696;28;20048;-76
2024/01/24 12:23:27;;;;;;;3.05;2.60;;;;;;;;;;5862283;28;20415;-76
2024/01/24 12:26:19;;;;;;;2.42;1.63;;;;;;;;;;5862016;28;20053;-76
2024/01/24 12:29:10;;;;;;;2.40;1.90;;;;;;;;;;5862565;28;20056;-76
2024/01/24 12:32:05;;;;;;;1.30;1.20;;;;;;;;;;5862314;28;20741;-77
2024/01/24 12:34:55;;;;;;;1.40;1.30;;;;;;;;;;5846488;28;20041;-76
2024/01/24 12:37:46;;;;;;;3.17;1.52;;;;;;;;;;5862042;28;20045;-76
2024/01/24 12:40:38;;;;;;;4.30;2.92;;;;;;;;;;5861898;28;20454;-76
2024/01/24 12:43:29;;;;;;;4.10;2.13;;;;;;;;;;5862048;28;20389;-77
2024/01/24 12:46:20;;;;;;;1.83;1.13;;;;;;;;;;5861879;28;20072;-77
2024/01/24 12:49:11;;;;;;;1.17;1.10;;;;;;;;;;5845460;28;20128;-77
2024/01/24 12:52:02;;;;;;;3.00;1.83;;;;;;;;;;5862936;28;20095;-77
2024/01/24 12:54:53;;;;;;;4.38;1.30;;;;;;;;;;5863097;28;20119;-77
2024/01/24 12:57:45;;;;;;;10.48;4.63;;;;;;;;;;5861160;28;20040;-77
2024/01/24 13:00:36;;;;;;;8.77;4.30;;;;;;;;;;5861691;28;20048;-76
2024/01/24 13:03:27;;;;;;;3.15;1.73;;;;;;;;;;5861755;28;20047;-77
2024/01/24 13:06:21;;;;;;;1.73;1.17;;;;;;;;;;5861538;28;20434;-77
2024/01/24 13:09:12;;;;;;;2.42;1.42;;;;;;;;;;5845315;28;20068;-76
2024/01/24 13:12:02;;;;;;;3.40;1.92;;;;;;;;;;5861464;28;20434;-77
2024/01/24 13:14:53;;;;;;;2.08;1.65;;;;;;;;;;5845093;28;20416;-77
2024/01/24 13:17:44;;;;;;;9.00;1.65;;;;;;;;;;5862819;28;20049;-77
2024/01/24 13:20:35;;;;;;;1.73;1.50;;;;;;;;;;5845365;28;20049;-77
2024/01/24 13:23:26;;;;;;;8.73;2.70;;;;;;;;;;5861302;28;20049;-77
2024/01/24 13:26:17;;;;;;;1.88;1.42;;;;;;;;;;5861433;28;20042;-76
2024/01/24 13:29:07;;;;;;;5.00;2.05;;;;;;;;;;5861140;28;20420;-76
2024/01/24 13:31:58;;;;;;;1.02;0.95;;;;;;;;;;5861991;28;20061;-77
2024/01/24 13:34:49;;;;;;;1.35;1.25;;;;;;;;;;5861109;28;20077;-77
2024/01/24 13:37:41;;;;;;;6.57;1.83;;;;;;;;;;5861227;28;20115;-76
2024/01/24 13:40:31;;;;;;;11.45;2.85;;;;;;;;;;5844859;28;20053;-77
2024/01/24 13:43:23;;;;;;;5.70;2.58;;;;;;;;;;5862307;28;20117;-77
2024/01/24 13:46:16;;;;;;;3.97;2.60;;;;;;;;;;5859306;28;20049;-76
2024/01/24 13:49:10;;;;;;;1.45;1.13;;;;;;;;;;5860906;28;20046;-77
2024/01/24 13:52:01;;;;;;;0.90;0.80;;;;;;;;;;5861329;28;20049;-77
2024/01/24 13:54:52;;;;;;;2.80;2.58;;;;;;;;;;5860944;28;20125;-77
2024/01/24 13:57:43;;;;;;;2.55;2.35;;;;;;;;;;5861117;28;20052;-76
2024/01/24 14:00:35;;;;;;;2.22;2.08;;;;;;;;;;5860995;28;20048;-76
2024/01/24 14:03:25;;;;;;;4.80;2.13;;;;;;;;;;5862489;28;20045;-76
2024/01/24 14:06:19;;;;;;;1.98;1.13;;;;;;;;;;5860837;28;20049;-75
2024/01/24 14:09:10;;;;;;;2.38;1.73;;;;;;;;;;5862822;28;20132;-77
2024/01/24 14:12:02;;;;;;;2.70;2.13;;;;;;;;;;5865541;28;20139;-78
2024/01/24 14:14:53;;;;;;;1.20;1.10;;;;;;;;;;5865535;28;20052;-76
2024/01/24 14:17:44;;;;;;;1.23;0.80;;;;;;;;;;5865173;28;20052;-76
2024/01/24 14:20:35;;;;;;;3.20;1.75;;;;;;;;;;5865382;28;20629;-76
2024/01/24 14:23:26;;;;;;;1.13;0.88;;;;;;;;;;5864978;28;20749;-76
2024/01/24 14:26:16;;;;;;;1.73;1.63;;;;;;;;;;5865090;28;20049;-76
2024/01/24 14:29:07;;;;;;;6.22;4.20;;;;;;;;;;5865047;28;20518;-77
2024/01/24 14:31:58;;;;;;;4.18;2.50;;;;;;;;;;5881996;28;20045;-76
2024/01/24 14:34:49;;;;;;;3.92;2.35;;;;;;;;;;5865950;28;20045;-77
2024/01/24 14:37:40;;;;;;;7.22;4.88;;;;;;;;;;5865116;28;20048;-76
2024/01/24 14:40:32;;;;;;;6.13;3.00;;;;;;;;;;5864374;28;20188;-77
2024/01/24 14:43:23;;;;;;;3.35;2.15;;;;;;;;;;5880974;28;20041;-77
2024/01/24 14:46:14;;;;;;;7.25;3.90;;;;;;;;;;5848554;28;20080;-76
2024/01/24 14:49:05;;;;;;;3.08;2.30;;;;;;;;;;5865427;28;20111;-77
2024/01/24 14:51:56;;;;;;;7.13;3.47;;;;;;;;;;5864769;28;20049;-76
2024/01/24 14:54:47;;;;;;;5.45;3.53;;;;;;;;;;5865694;28;20065;-76
2024/01/24 14:57:37;;;;;;;3.08;2.80;;;;;;;;;;5864346;28;20041;-76
2024/01/24 15:00:28;;;;;;;8.07;4.53;;;;;;;;;;5864160;28;20049;-77
2024/01/24 15:03:20;;;;;;;8.20;3.58;;;;;;;;;;5847761;28;20055;-76
2024/01/24 15:06:10;;;;;;;6.47;4.75;;;;;;;;;;5847270;28;20514;-77
2024/01/24 15:09:01;;;;;;;8.10;3.60;;;;;;;;;;5863833;28;20044;-77
2024/01/24 15:11:52;;;;;;;4.82;3.20;;;;;;;;;;5864440;28;20041;-76
2024/01/24 15:14:43;;;;;;;7.80;3.08;;;;;;;;;;5863660;28;20049;-76
2024/01/24 15:17:34;;;;;;;9.77;6.43;;;;;;;;;;5865140;28;20041;-77
2024/01/24 15:20:25;;;;;;;5.72;4.05;;;;;;;;;;5862764;28;20480;-77
2024/01/24 15:23:16;;;;;;;13.93;5.35;;;;;;;;;;5863510;28;20061;-77
2024/01/24 15:26:09;;;;;;;8.02;3.58;;;;;;;;;;5863609;28;20111;-77
2024/01/24 15:29:01;;;;;;;9.55;4.22;;;;;;;;;;5863433;28;20049;-77
2024/01/24 15:31:52;;;;;;;6.20;3.58;;;;;;;;;;5863809;28;20049;-77
2024/01/24 15:34:42;;;;;;;11.80;4.50;;;;;;;;;;5846903;28;20180;-77
2024/01/24 15:37:34;;;;;;;4.90;2.72;;;;;;;;;;5863760;28;20068;-77
2024/01/24 15:40:25;;;;;;;3.63;2.75;;;;;;;;;;5863358;28;20414;-77
2024/01/24 15:43:18;;;;;;;15.25;5.78;;;;;;;;;;5863064;28;20388;-77
2024/01/24 15:46:09;;;;;;;7.78;4.28;;;;;;;;;;5862991;28;20055;-77
2024/01/24 15:49:00;;;;;;;5.97;3.63;;;;;;;;;;5847187;28;20045;-76
2024/01/24 15:51:51;;;;;;;4.85;2.33;;;;;;;;;;5864749;28;20419;-77
2024/01/24 15:54:42;;;;;;;4.40;2.10;;;;;;;;;;5862309;28;20085;-76
2024/01/24 15:57:32;;;;;;;3.47;2.53;;;;;;;;;;5862914;28;20539;-77
2024/01/24 16:00:24;;;;;;;4.78;2.25;;;;;;;;;;5862503;28;20099;-77
2024/01/24 16:03:18;;;;;;;10.57;5.07;;;;;;;;;;5862866;28;20049;-77
2024/01/24 16:06:09;;;;;;;12.57;7.32;;;;;;;;;;5846725;28;20048;-77
2024/01/24 16:09:00;;;;;;;7.05;3.47;;;;;;;;;;5864219;28;20038;-77
2024/01/24 16:11:51;;;;;;;6.30;5.13;;;;;;;;;;5863928;28;20046;-77
2024/01/24 16:14:42;;;;;;;5.22;3.60;;;;;;;;;;5862258;28;20046;-77
2024/01/24 16:17:32;;;;;;;4.70;3.25;;;;;;;;;;5862534;28;20085;-77
2024/01/24 16:20:23;;;;;;;10.52;3.58;;;;;;;;;;5861974;28;20502;-77
2024/01/24 16:23:14;;;;;;;4.95;3.20;;;;;;;;;;5845827;28;20399;-77
2024/01/24 16:26:05;;;;;;;2.35;2.15;;;;;;;;;;5862199;28;20060;-77
2024/01/24 16:28:55;;;;;;;10.15;4.65;;;;;;;;;;5878740;28;20064;-77
2024/01/24 16:31:46;;;;;;;5.60;4.18;;;;;;;;;;5845617;28;20049;-77
2024/01/24 16:34:37;;;;;;;5.82;4.00;;;;;;;;;;5862837;28;20049;-77
2024/01/24 16:37:28;;;;;;;5.55;3.42;;;;;;;;;;5861913;28;20503;-77
2024/01/24 16:40:18;;;;;;;4.07;2.40;;;;;;;;;;5863354;28;20566;-77
2024/01/24 16:43:09;;;;;;;4.75;3.22;;;;;;;;;;5861948;28;20136;-77
2024/01/24 16:46:02;;;;;;;5.10;3.25;;;;;;;;;;5862385;28;20408;-77
2024/01/24 16:48:55;;;;;;;4.10;3.70;;;;;;;;;;5862108;28;20056;-77
2024/01/24 16:51:46;;;;;;;4.38;1.70;;;;;;;;;;5862070;28;20052;-77
2024/01/24 16:54:37;;;;;;;8.15;3.63;;;;;;;;;;5861510;28;20479;-77
2024/01/24 16:57:27;;;;;;;4.25;2.08;;;;;;;;;;5862946;28;20095;-77
2024/01/24 17:00:18;;;;;;;4.40;3.00;;;;;;;;;;5845261;28;20155;-77
2024/01/24 17:03:09;;;;;;;2.40;1.63;;;;;;;;;;5862749;28;20056;-77
2024/01/24 17:06:01;;;;;;;3.83;2.40;;;;;;;;;;5861754;28;20053;-77